createdAt,value
2018-12-13T00:01:22.130Z,70.59
2018-12-13T00:03:51.920Z,70.97
2018-12-13T00:06:20.632Z,70.85
2018-12-13T00:08:49.630Z,70.57
2018-12-13T00:11:18.684Z,70.71
2018-12-13T00:13:47.725Z,70.51
2018-12-13T00:16:16.406Z,69.91
2018-12-13T00:18:46.665Z,69.74
2018-12-13T00:21:15.597Z,69.54
2018-12-13T00:23:44.318Z,69.85
2018-12-13T00:26:13.332Z,70.09
2018-12-13T00:28:42.169Z,69.84
2018-12-13T00:31:11.170Z,70.20
2018-12-13T00:33:39.954Z,70.58
2018-12-13T00:36:08.672Z,70.51
2018-12-13T00:38:37.530Z,70.54
2018-12-13T00:41:06.247Z,71.23
2018-12-13T00:43:35.335Z,71.61
2018-12-13T00:46:04.102Z,71.33
2018-12-13T00:48:33.079Z,71.02
2018-12-13T00:51:01.895Z,70.35
2018-12-13T00:53:30.582Z,69.87
2018-12-13T00:55:59.565Z,69.83
2018-12-13T00:58:28.651Z,70.83
2018-12-13T01:01:01.438Z,71.03
2018-12-13T01:03:30.763Z,71.40
2018-12-13T01:06:00.226Z,71.25
2018-12-13T01:08:29.120Z,71.01
2018-12-13T01:10:58.377Z,71.67
2018-12-13T01:13:27.206Z,72.38
2018-12-13T01:15:56.314Z,72.46
2018-12-13T01:18:25.602Z,73.06
2018-12-13T01:20:54.396Z,73.57
2018-12-13T01:23:23.620Z,74.05
2018-12-13T01:25:52.747Z,74.30
2018-12-13T01:28:21.755Z,75.43
2018-12-13T01:30:50.950Z,75.24
2018-12-13T01:33:19.836Z,75.53
2018-12-13T01:35:48.800Z,75.56
2018-12-13T01:38:17.496Z,75.18
2018-12-13T01:40:46.384Z,73.83
2018-12-13T01:43:15.722Z,73.32
2018-12-13T01:45:44.726Z,73.08
2018-12-13T01:48:13.817Z,72.96
2018-12-13T01:50:42.619Z,72.70
2018-12-13T01:53:11.621Z,73.42
2018-12-13T01:55:41.296Z,73.57
2018-12-13T01:58:09.995Z,74.29
2018-12-13T02:00:38.657Z,74.64
2018-12-13T02:03:07.446Z,75.33
2018-12-13T02:05:36.448Z,75.14
2018-12-13T02:08:05.175Z,74.94
2018-12-13T02:10:33.892Z,74.87
2018-12-13T02:13:02.608Z,73.62
2018-12-13T02:18:12.964Z,73.08
2018-12-13T02:20:42.129Z,73.27
2018-12-13T02:23:10.816Z,73.12
2018-12-13T02:25:39.619Z,74.53
2018-12-13T02:28:08.709Z,74.63
2018-12-13T02:30:37.701Z,73.76
2018-12-13T02:33:06.755Z,73.74
2018-12-13T02:35:35.791Z,73.05
2018-12-13T02:38:04.772Z,72.99
2018-12-13T02:40:33.728Z,73.61
2018-12-13T02:43:02.453Z,73.21
2018-12-13T02:45:31.406Z,73.88
2018-12-13T02:48:00.073Z,74.82
2018-12-13T02:50:28.941Z,75.00
2018-12-13T02:52:57.797Z,75.40
2018-12-13T02:55:26.580Z,75.53
2018-12-13T02:57:55.317Z,75.44
2018-12-13T03:00:24.181Z,75.49
2018-12-13T03:02:53.260Z,74.75
2018-12-13T03:05:22.348Z,75.15
2018-12-13T03:07:51.521Z,74.82
2018-12-13T03:10:20.508Z,74.54
2018-12-13T03:12:49.404Z,74.73
2018-12-13T03:15:18.456Z,75.41
2018-12-13T03:17:47.283Z,75.41
2018-12-13T03:20:16.315Z,75.77
2018-12-13T03:22:45.023Z,75.40
2018-12-13T03:25:14.555Z,75.20
2018-12-13T03:27:43.661Z,73.86
2018-12-13T03:30:12.813Z,73.69
2018-12-13T03:32:41.686Z,74.45
2018-12-13T03:35:10.414Z,74.86
2018-12-13T03:37:39.595Z,74.75
2018-12-13T03:40:08.710Z,76.00
2018-12-13T03:42:37.443Z,76.18
2018-12-13T03:45:06.597Z,76.01
2018-12-13T03:47:35.478Z,75.65
2018-12-13T03:50:04.916Z,76.35
2018-12-13T03:52:33.875Z,77.19
2018-12-13T03:55:02.838Z,78.34
2018-12-13T03:57:31.579Z,78.81
2018-12-13T04:00:00.346Z,79.50
2018-12-13T04:02:30.184Z,79.67
2018-12-13T04:04:59.221Z,80.21
2018-12-13T04:07:28.031Z,80.40
2018-12-13T04:09:56.884Z,81.25
2018-12-13T04:12:25.675Z,81.10
2018-12-13T04:14:54.454Z,80.95
2018-12-13T04:17:23.162Z,80.79
2018-12-13T04:19:52.396Z,80.16
2018-12-13T04:22:21.441Z,80.52
2018-12-13T04:24:50.293Z,81.14
2018-12-13T04:27:19.157Z,81.96
2018-12-13T04:29:48.185Z,82.14
2018-12-13T04:32:17.350Z,81.87
2018-12-13T04:34:46.384Z,82.50
2018-12-13T04:37:15.077Z,82.43
2018-12-13T04:39:44.235Z,82.10
2018-12-13T04:42:13.064Z,83.14
2018-12-13T04:44:41.974Z,82.48
2018-12-13T04:47:10.947Z,82.45
2018-12-13T04:49:39.712Z,82.61
2018-12-13T04:52:08.763Z,82.83
2018-12-13T04:54:37.955Z,82.93
2018-12-13T04:57:07.000Z,82.86
2018-12-13T04:59:36.000Z,83.68
2018-12-13T05:02:05.568Z,83.11
2018-12-13T05:04:34.540Z,83.45
2018-12-13T05:07:04.090Z,83.59
2018-12-13T05:09:33.164Z,84.61
2018-12-13T05:12:02.159Z,83.91
2018-12-13T05:14:30.803Z,84.12
2018-12-13T05:16:59.759Z,84.08
2018-12-13T05:19:28.720Z,84.56
2018-12-13T05:21:58.443Z,83.68
2018-12-13T05:24:27.331Z,82.61
2018-12-13T05:26:55.992Z,81.67
2018-12-13T05:29:24.791Z,81.64
2018-12-13T05:31:53.821Z,81.78
2018-12-13T05:34:22.847Z,81.04
2018-12-13T05:36:51.573Z,81.11
2018-12-13T05:39:20.805Z,81.71
2018-12-13T05:41:49.777Z,82.56
2018-12-13T05:44:22.529Z,82.71
2018-12-13T05:46:51.634Z,82.64
2018-12-13T05:49:20.605Z,83.40
2018-12-13T05:51:49.360Z,83.43
2018-12-13T05:54:18.119Z,83.46
2018-12-13T05:56:46.902Z,83.79
2018-12-13T05:59:16.340Z,84.16
2018-12-13T06:01:45.089Z,85.08
2018-12-13T06:04:14.118Z,86.02
2018-12-13T06:06:43.292Z,86.40
2018-12-13T06:09:12.046Z,86.32
2018-12-13T06:11:41.129Z,86.15
2018-12-13T06:14:09.867Z,86.63
2018-12-13T06:16:38.971Z,85.88
2018-12-13T06:19:07.860Z,86.04
2018-12-13T06:21:37.199Z,86.27
2018-12-13T06:24:06.530Z,85.38
2018-12-13T06:26:35.449Z,84.32
2018-12-13T06:29:04.258Z,83.92
2018-12-13T06:31:33.029Z,83.12
2018-12-13T06:34:01.786Z,83.38
2018-12-13T06:36:30.551Z,82.61
2018-12-13T06:38:59.464Z,81.03
2018-12-13T06:41:28.133Z,80.70
2018-12-13T06:43:56.869Z,80.12
2018-12-13T06:46:25.633Z,80.01
2018-12-13T06:48:55.053Z,79.96
2018-12-13T06:51:24.007Z,79.68
2018-12-13T06:53:52.876Z,79.50
2018-12-13T06:56:22.014Z,79.59
2018-12-13T06:58:50.968Z,79.20
2018-12-13T07:01:19.808Z,79.98
2018-12-13T07:03:48.496Z,78.59
2018-12-13T07:06:17.424Z,78.20
2018-12-13T07:08:46.593Z,77.48
2018-12-13T07:11:15.656Z,78.34
2018-12-13T07:13:44.504Z,78.04
2018-12-13T07:16:13.595Z,78.26
2018-12-13T07:18:42.378Z,77.48
2018-12-13T07:21:11.177Z,76.83
2018-12-13T07:23:40.073Z,76.78
2018-12-13T07:26:08.750Z,76.49
2018-12-13T07:28:37.633Z,76.52
2018-12-13T07:31:06.745Z,76.02
2018-12-13T07:33:35.517Z,75.40
2018-12-13T07:36:04.365Z,75.59
2018-12-13T07:38:33.325Z,75.87
2018-12-13T07:41:02.129Z,75.26
2018-12-13T07:43:31.105Z,73.96
2018-12-13T07:45:59.838Z,73.81
2018-12-13T07:48:28.866Z,72.37
2018-12-13T07:50:57.817Z,71.91
2018-12-13T07:53:26.519Z,70.86
2018-12-13T07:55:55.253Z,71.58
2018-12-13T07:58:24.328Z,72.47
2018-12-13T08:00:53.245Z,73.38
2018-12-13T08:03:22.198Z,73.54
2018-12-13T08:05:51.286Z,72.11
2018-12-13T08:08:21.143Z,71.33
2018-12-13T08:10:50.207Z,71.16
2018-12-13T08:13:19.364Z,73.40
2018-12-13T08:15:48.514Z,71.96
2018-12-13T08:18:17.420Z,72.65
2018-12-13T08:20:46.207Z,71.42
2018-12-13T08:23:15.261Z,69.91
2018-12-13T08:25:44.121Z,69.73
2018-12-13T08:28:13.243Z,69.68
2018-12-13T08:30:42.047Z,68.34
2018-12-13T08:33:10.974Z,66.37
2018-12-13T08:35:39.907Z,66.27
2018-12-13T08:38:09.633Z,64.32
2018-12-13T08:40:38.436Z,63.86
2018-12-13T08:43:07.279Z,64.24
2018-12-13T08:45:36.373Z,62.40
2018-12-13T08:48:05.324Z,61.73
2018-12-13T08:50:34.085Z,61.72
2018-12-13T08:53:02.987Z,61.58
2018-12-13T08:55:31.657Z,61.02
2018-12-13T08:58:00.909Z,60.82
2018-12-13T09:00:29.621Z,60.64
2018-12-13T09:02:58.638Z,59.88
2018-12-13T09:05:27.543Z,59.47
2018-12-13T09:07:56.515Z,58.61
2018-12-13T09:10:25.714Z,58.12
2018-12-13T09:12:54.909Z,59.48
2018-12-13T09:15:24.361Z,59.44
2018-12-13T09:17:53.700Z,59.16
2018-12-13T09:20:22.675Z,58.63
2018-12-13T09:22:51.647Z,57.72
2018-12-13T09:25:20.714Z,57.21
2018-12-13T09:27:49.832Z,57.27
2018-12-13T09:30:18.705Z,56.79
2018-12-13T09:32:47.432Z,56.90
2018-12-13T09:35:16.311Z,56.14
2018-12-13T09:37:47.708Z,56.13
2018-12-13T09:40:16.359Z,55.59
2018-12-13T09:42:45.124Z,54.98
2018-12-13T09:45:14.129Z,54.25
2018-12-13T09:47:43.116Z,54.14
2018-12-13T09:50:12.040Z,54.22
2018-12-13T09:52:41.038Z,53.48
2018-12-13T09:55:10.104Z,53.26
2018-12-13T09:57:39.143Z,53.54
2018-12-13T10:00:09.796Z,53.14
2018-12-13T10:02:38.668Z,52.94
2018-12-13T10:05:07.429Z,52.26
2018-12-13T10:07:36.128Z,51.26
2018-12-13T10:10:05.755Z,51.92
2018-12-13T10:12:34.883Z,51.68
2018-12-13T10:15:03.992Z,51.37
2018-12-13T10:17:33.032Z,50.71
2018-12-13T10:20:02.393Z,50.57
2018-12-13T10:22:31.209Z,50.95
2018-12-13T10:25:00.566Z,50.69
2018-12-13T10:27:29.566Z,50.10
2018-12-13T10:29:58.634Z,49.98
2018-12-13T10:32:27.357Z,50.22
2018-12-13T10:34:56.289Z,50.44
2018-12-13T10:37:25.083Z,50.43
2018-12-13T10:39:53.864Z,48.89
2018-12-13T10:42:22.771Z,48.67
2018-12-13T10:44:51.562Z,48.25
2018-12-13T10:47:20.707Z,48.39
2018-12-13T10:49:49.682Z,48.50
2018-12-13T10:52:18.499Z,49.28
2018-12-13T10:54:49.031Z,48.89
2018-12-13T10:57:18.070Z,48.92
2018-12-13T10:59:46.748Z,48.20
2018-12-13T11:02:20.861Z,48.71
2018-12-13T11:04:49.667Z,48.34
2018-12-13T11:07:18.538Z,48.83
2018-12-13T11:09:47.612Z,49.96
2018-12-13T11:12:16.402Z,49.88
2018-12-13T11:14:45.482Z,49.35
2018-12-13T11:17:14.620Z,49.95
2018-12-13T11:19:43.574Z,50.28
2018-12-13T11:22:12.721Z,49.10
2018-12-13T11:24:41.484Z,49.31
2018-12-13T11:28:21.550Z,49.75
2018-12-13T11:30:50.680Z,49.38
2018-12-13T11:33:19.535Z,50.02
2018-12-13T11:35:48.707Z,50.23
2018-12-13T11:38:17.789Z,50.46
2018-12-13T11:40:46.822Z,50.14
2018-12-13T11:43:15.921Z,50.19
2018-12-13T11:45:45.516Z,50.31
2018-12-13T11:48:15.396Z,50.41
2018-12-13T11:50:44.098Z,50.03
2018-12-13T11:53:13.450Z,49.88
2018-12-13T11:55:42.651Z,49.80
2018-12-13T11:58:14.382Z,50.35
2018-12-13T12:00:43.422Z,50.75
2018-12-13T12:03:12.350Z,49.77
2018-12-13T12:05:41.314Z,50.10
2018-12-13T12:08:10.319Z,49.58
2018-12-13T12:10:39.022Z,48.58
2018-12-13T12:13:09.009Z,48.86
2018-12-13T12:15:38.502Z,49.11
2018-12-13T12:18:07.552Z,49.83
2018-12-13T12:20:36.264Z,49.13
2018-12-13T12:23:05.318Z,48.98
2018-12-13T12:25:34.021Z,48.96
2018-12-13T12:28:02.912Z,48.84
2018-12-13T12:30:32.037Z,48.82
2018-12-13T12:33:01.192Z,48.75
2018-12-13T12:35:30.443Z,49.22
2018-12-13T12:37:59.578Z,48.60
2018-12-13T12:40:28.555Z,48.80
2018-12-13T12:42:58.438Z,48.48
2018-12-13T12:45:27.095Z,48.76
2018-12-13T12:47:56.096Z,48.95
2018-12-13T12:50:25.029Z,48.76
2018-12-13T12:52:53.922Z,48.47
2018-12-13T12:55:22.889Z,49.04
2018-12-13T12:57:52.020Z,48.62
2018-12-13T13:00:21.024Z,49.44
2018-12-13T13:02:50.406Z,49.23
2018-12-13T13:05:19.379Z,49.29
2018-12-13T13:07:48.112Z,49.22
2018-12-13T13:10:17.518Z,48.76
2018-12-13T13:12:46.397Z,48.24
2018-12-13T13:15:15.438Z,46.73
2018-12-13T13:17:44.297Z,45.93
2018-12-13T13:20:13.348Z,46.65
2018-12-13T13:22:42.288Z,45.71
2018-12-13T13:25:11.293Z,45.99
2018-12-13T13:27:40.244Z,45.86
2018-12-13T13:30:09.545Z,47.37
2018-12-13T13:32:38.329Z,47.37
2018-12-13T13:35:07.289Z,47.78
2018-12-13T13:37:36.773Z,47.90
2018-12-13T13:40:05.958Z,48.33
2018-12-13T13:42:35.181Z,48.93
2018-12-13T13:45:04.594Z,49.25
2018-12-13T13:47:33.355Z,49.67
2018-12-13T13:50:02.136Z,49.90
2018-12-13T13:52:31.164Z,50.67
2018-12-13T13:54:59.893Z,50.46
2018-12-13T13:57:28.642Z,51.13
2018-12-13T13:59:57.584Z,50.94
2018-12-13T14:02:26.730Z,52.28
2018-12-13T14:04:55.657Z,53.29
2018-12-13T14:07:24.725Z,53.69
2018-12-13T14:09:53.678Z,54.05
2018-12-13T14:12:22.487Z,55.17
2018-12-13T14:14:51.526Z,55.37
2018-12-13T14:17:20.674Z,55.36
2018-12-13T14:19:49.466Z,55.39
2018-12-13T14:22:18.837Z,55.99
2018-12-13T14:24:47.702Z,56.21
2018-12-13T14:27:16.962Z,55.59
2018-12-13T14:29:45.811Z,55.62
2018-12-13T14:32:14.783Z,55.80
2018-12-13T14:34:43.867Z,55.99
2018-12-13T14:37:12.809Z,56.04
2018-12-13T14:39:44.621Z,56.03
2018-12-13T14:42:12.947Z,56.15
2018-12-13T14:44:41.787Z,56.42
2018-12-13T14:47:10.914Z,56.89
2018-12-13T14:49:40.650Z,57.16
2018-12-13T14:52:10.171Z,57.30
2018-12-13T14:54:39.648Z,57.90
2018-12-13T14:57:08.704Z,58.36
2018-12-13T14:59:37.838Z,58.02
2018-12-13T15:02:06.827Z,58.21
2018-12-13T15:04:35.869Z,58.66
2018-12-13T15:07:05.013Z,58.59
2018-12-13T15:09:34.107Z,59.41
2018-12-13T15:12:02.896Z,59.40
2018-12-13T15:14:31.839Z,60.02
2018-12-13T15:17:00.933Z,60.72
2018-12-13T15:19:29.828Z,60.42
2018-12-13T15:21:58.825Z,60.52
2018-12-13T15:24:27.840Z,60.07
2018-12-13T15:26:56.605Z,59.28
2018-12-13T15:29:25.657Z,59.75
2018-12-13T15:31:59.312Z,59.44
2018-12-13T15:34:25.507Z,59.57
2018-12-13T15:36:59.115Z,59.96
2018-12-13T15:39:28.088Z,59.87
2018-12-13T15:41:57.170Z,59.98
2018-12-13T15:44:26.383Z,60.71
2018-12-13T15:46:55.468Z,60.96
2018-12-13T15:49:24.581Z,61.36
2018-12-13T15:51:53.569Z,61.29
2018-12-13T15:54:22.690Z,62.14
2018-12-13T15:56:51.637Z,62.68
2018-12-13T15:59:20.642Z,62.60
2018-12-13T16:01:49.645Z,63.07
2018-12-13T16:04:18.456Z,62.88
2018-12-13T16:06:47.783Z,62.50
2018-12-13T16:09:16.837Z,62.46
2018-12-13T16:11:45.897Z,62.83
2018-12-13T16:14:14.976Z,63.25
2018-12-13T16:16:44.208Z,63.45
2018-12-13T16:19:13.234Z,63.17
2018-12-13T16:21:43.014Z,63.49
2018-12-13T16:24:12.324Z,63.35
2018-12-13T16:26:41.260Z,63.55
2018-12-13T16:29:10.846Z,63.84
2018-12-13T16:31:40.096Z,64.14
2018-12-13T16:34:09.255Z,64.28
2018-12-13T16:36:38.002Z,64.02
2018-12-13T16:39:08.577Z,63.37
2018-12-13T16:41:37.666Z,63.06
2018-12-13T16:44:07.060Z,63.47
2018-12-13T16:46:35.971Z,63.05
2018-12-13T16:49:05.456Z,63.32
2018-12-13T16:51:34.443Z,63.39
2018-12-13T16:54:03.559Z,63.77
2018-12-13T16:56:32.588Z,63.92
2018-12-13T16:59:01.547Z,64.63
2018-12-13T17:01:30.671Z,64.53
2018-12-13T17:03:59.670Z,64.54
2018-12-13T17:06:28.869Z,64.47
2018-12-13T17:08:58.043Z,64.75
2018-12-13T17:11:27.025Z,64.71
2018-12-13T17:13:55.986Z,64.58
2018-12-13T17:16:25.112Z,64.32
2018-12-13T17:18:53.909Z,64.81
2018-12-13T17:21:22.991Z,65.10
2018-12-13T17:23:51.729Z,65.74
2018-12-13T17:26:20.947Z,65.90
2018-12-13T17:28:49.818Z,65.97
2018-12-13T17:31:18.851Z,66.22
2018-12-13T17:33:47.989Z,66.13
2018-12-13T17:36:17.077Z,66.03
2018-12-13T17:38:46.087Z,65.84
2018-12-13T17:41:14.842Z,65.81
2018-12-13T17:43:43.861Z,65.34
2018-12-13T17:46:13.306Z,65.33
2018-12-13T17:48:42.372Z,65.29
2018-12-13T17:51:11.505Z,64.88
2018-12-13T17:53:40.473Z,65.28
2018-12-13T17:56:09.589Z,64.88
2018-12-13T17:58:38.545Z,65.11
2018-12-13T18:01:07.609Z,65.69
2018-12-13T18:03:36.909Z,65.25
2018-12-13T18:06:05.727Z,65.56
2018-12-13T18:08:34.428Z,65.51
2018-12-13T18:11:03.147Z,65.56
2018-12-13T18:13:32.037Z,65.79
2018-12-13T18:16:00.996Z,65.56
2018-12-13T18:18:30.406Z,66.17
2018-12-13T18:20:59.629Z,66.11
2018-12-13T18:23:28.674Z,66.24
2018-12-13T18:25:57.690Z,66.74
2018-12-13T18:28:26.471Z,66.78
2018-12-13T18:30:55.535Z,67.37
2018-12-13T18:33:24.521Z,67.29
2018-12-13T18:35:53.542Z,66.89
2018-12-13T18:38:22.620Z,67.37
2018-12-13T18:40:51.633Z,67.85
2018-12-13T18:43:20.847Z,67.71
2018-12-13T18:45:49.970Z,67.40
2018-12-13T18:48:18.722Z,67.42
2018-12-13T18:50:47.504Z,68.18
2018-12-13T18:53:16.548Z,68.78
2018-12-13T18:55:45.275Z,68.72
2018-12-13T18:58:14.419Z,68.58
2018-12-13T19:00:43.314Z,68.91
2018-12-13T19:03:12.537Z,68.46
2018-12-13T19:05:41.627Z,67.96
2018-12-13T19:08:10.612Z,67.82
2018-12-13T19:10:42.003Z,67.84
2018-12-13T19:13:10.777Z,67.22
2018-12-13T19:15:40.196Z,67.08
2018-12-13T19:18:09.389Z,68.08
2018-12-13T19:20:38.223Z,67.69
2018-12-13T19:23:06.963Z,68.44
2018-12-13T19:25:35.993Z,68.87
2018-12-13T19:28:05.036Z,69.12
2018-12-13T19:30:33.941Z,69.61
2018-12-13T19:33:03.050Z,69.69
2018-12-13T19:35:31.894Z,70.23
2018-12-13T19:38:00.666Z,69.68
2018-12-13T19:40:29.836Z,69.93
2018-12-13T19:42:59.063Z,69.35
2018-12-13T19:45:27.842Z,69.62
2018-12-13T19:47:56.610Z,69.28
2018-12-13T19:50:25.409Z,69.04
2018-12-13T19:52:54.492Z,68.79
2018-12-13T19:55:23.463Z,68.66
2018-12-13T19:57:52.353Z,67.29
2018-12-13T20:00:21.391Z,66.78
2018-12-13T20:02:50.187Z,67.97
2018-12-13T20:05:19.200Z,67.99
2018-12-13T20:07:48.017Z,68.79
2018-12-13T20:10:16.772Z,68.61
2018-12-13T20:12:45.717Z,69.08
2018-12-13T20:15:14.757Z,67.76
2018-12-13T20:17:43.578Z,67.55
2018-12-13T20:20:12.723Z,67.24
2018-12-13T20:22:41.783Z,67.28
2018-12-13T20:25:10.743Z,67.26
2018-12-13T20:27:40.284Z,68.12
2018-12-13T20:30:10.076Z,68.78
2018-12-13T20:32:38.864Z,68.74
2018-12-13T20:35:07.836Z,68.29
2018-12-13T20:37:36.958Z,68.71
2018-12-13T20:40:06.033Z,68.48
2018-12-13T20:42:34.959Z,68.71
2018-12-13T20:45:03.957Z,68.80
2018-12-13T20:47:33.004Z,68.41
2018-12-13T20:50:02.059Z,67.95
2018-12-13T20:52:30.750Z,69.51
2018-12-13T20:54:59.718Z,69.67
2018-12-13T20:57:28.962Z,69.87
2018-12-13T20:59:57.754Z,70.40
2018-12-13T21:02:26.814Z,70.89
2018-12-13T21:04:56.166Z,70.81
2018-12-13T21:07:30.329Z,71.21
2018-12-13T21:09:59.191Z,71.22
2018-12-13T21:12:28.433Z,71.18
2018-12-13T21:14:57.588Z,71.78
2018-12-13T21:17:26.408Z,71.85
2018-12-13T21:19:55.145Z,72.25
2018-12-13T21:22:23.912Z,72.03
2018-12-13T21:24:52.737Z,72.84
2018-12-13T21:27:21.822Z,72.89
2018-12-13T21:29:50.632Z,72.45
2018-12-13T21:32:19.591Z,72.75
2018-12-13T21:34:48.318Z,73.11
2018-12-13T21:37:17.303Z,73.21
2018-12-13T21:39:46.362Z,72.85
2018-12-13T21:42:15.299Z,72.85
2018-12-13T21:44:44.014Z,73.13
2018-12-13T21:47:12.982Z,72.83
2018-12-13T21:49:41.865Z,73.11
2018-12-13T21:52:10.864Z,73.48
2018-12-13T21:54:39.759Z,73.62
2018-12-13T21:57:08.803Z,73.75
2018-12-13T21:59:37.803Z,73.49
2018-12-13T22:02:06.757Z,73.95
2018-12-13T22:04:35.724Z,74.17
2018-12-13T22:07:05.398Z,74.52
2018-12-13T22:09:34.400Z,75.07
2018-12-13T22:12:03.135Z,74.16
2018-12-13T22:14:32.203Z,74.48
2018-12-13T22:17:01.135Z,74.87
2018-12-13T22:19:30.666Z,75.02
2018-12-13T22:21:59.431Z,75.30
2018-12-13T22:24:28.089Z,75.20
2018-12-13T22:26:56.742Z,75.83
2018-12-13T22:29:25.672Z,75.62
2018-12-13T22:31:54.741Z,75.97
2018-12-13T22:34:24.027Z,74.97
2018-12-13T22:36:52.966Z,75.74
2018-12-13T22:39:21.849Z,75.41
2018-12-13T22:41:50.897Z,75.35
2018-12-13T22:44:19.619Z,74.69
2018-12-13T22:46:48.740Z,74.33
2018-12-13T22:49:17.572Z,73.66
2018-12-13T22:51:46.637Z,73.76
2018-12-13T22:54:15.619Z,74.49
2018-12-13T22:56:44.382Z,75.39
2018-12-13T22:59:13.412Z,74.98
2018-12-13T23:01:42.656Z,74.66
2018-12-13T23:04:11.319Z,74.82
2018-12-13T23:06:40.365Z,75.11
2018-12-13T23:09:09.162Z,75.54
2018-12-13T23:11:38.006Z,75.65
2018-12-13T23:14:06.960Z,76.39
2018-12-13T23:16:35.655Z,76.71
2018-12-13T23:19:04.603Z,76.72
2018-12-13T23:21:33.235Z,77.38
2018-12-13T23:24:01.951Z,78.05
2018-12-13T23:26:30.608Z,78.95
2018-12-13T23:28:59.416Z,79.39
2018-12-13T23:31:28.568Z,79.83
2018-12-13T23:33:57.680Z,79.89
2018-12-13T23:36:26.534Z,80.99
2018-12-13T23:38:55.522Z,80.72
2018-12-13T23:41:24.249Z,80.18
2018-12-13T23:43:53.022Z,80.11
2018-12-13T23:46:22.125Z,80.64
2018-12-13T23:48:50.781Z,80.46
2018-12-13T23:51:19.826Z,80.80
2018-12-13T23:53:48.525Z,80.14
2018-12-13T23:56:17.210Z,80.28
2018-12-13T23:58:46.276Z,79.39
